CheckWX is a tool to help pilots better visualize weather data.  It is not intended as a substitute for an official pre-flight weather briefing.

18:13:38 UTC

1K1 METAR
Lloyd Stearman Field Airport
Benton, Kansas, USA
Current

19 mins ago

K1K1 171755Z AUTO 19016G20KT 10SM CLR 19/03 A2994 RMK AO2 T01940032 10194 20061
Observed
Oct-17 @ 17:55 UTC
Wind
  • 190° at 16 KTS
  • Gusting to 20 KTS
Visibility
10 SM
Flight Rules
VFR
Cloud Levels
  • Clear skies
Temperature
19°C / 66°F
Dewpoint
C / 37°F
Humidity
35%
Altimeter
29.94" Hg
Pressure
1013.92 hPa
Previous

39 mins ago

K1K1 171735Z AUTO 18013G19KT 10SM CLR 19/03 A2995 RMK AO2 T01860031
Observed
Oct-17 @ 17:35 UTC
Wind
  • 180° at 13 KTS
  • Gusting to 19 KTS
Visibility
10 SM
Flight Rules
VFR
Cloud Levels
  • Clear skies
Temperature
19°C / 66°F
Dewpoint
C / 37°F
Humidity
35%
Altimeter
29.95" Hg
Pressure
1014.22 hPa
Previous

59 mins ago

K1K1 171715Z AUTO 19014G20KT 10SM CLR 18/03 A2995 RMK AO2 T01820030
Observed
Oct-17 @ 17:15 UTC
Wind
  • 190° at 14 KTS
  • Gusting to 20 KTS
Visibility
10 SM
Flight Rules
VFR
Cloud Levels
  • Clear skies
Temperature
18°C / 64°F
Dewpoint
C / 37°F
Humidity
37%
Altimeter
29.95" Hg
Pressure
1014.22 hPa